createdAt,value
2023-02-13T19:32:18.121Z,6.75
2023-02-13T19:37:11.481Z,6.5625
2023-02-13T19:37:56.383Z,-127
2023-02-13T19:42:56.019Z,-127
2023-02-13T19:47:56.000Z,-127
2023-02-13T19:52:56.317Z,-127
2023-02-13T19:57:56.661Z,-127
2023-02-13T20:02:56.909Z,-127
2023-02-13T20:07:58.118Z,6.375
2023-02-13T20:12:59.224Z,6.375
2023-02-13T20:18:01.015Z,6.3125
2023-02-13T20:23:02.359Z,6.3125
2023-02-13T20:28:03.366Z,6.25
2023-02-13T20:33:04.435Z,6.3125
2023-02-13T20:38:05.885Z,6.25
2023-02-13T20:43:06.843Z,6.25
2023-02-13T20:48:07.891Z,6.25
2023-02-13T20:53:09.168Z,6.1875
2023-02-13T20:58:10.419Z,6.1875
2023-02-13T21:03:11.351Z,6.1875
2023-02-13T21:08:12.688Z,6.1875
2023-02-13T21:13:13.581Z,6.1875
2023-02-13T21:18:14.946Z,6.125
2023-02-13T21:23:15.910Z,6.125
2023-02-13T21:33:19.726Z,6.0625
2023-02-13T21:38:19.442Z,6.0625
2023-02-13T21:43:20.469Z,6
2023-02-13T21:48:21.900Z,6
2023-02-13T21:53:22.653Z,6
2023-02-13T21:58:23.547Z,5.9375
2023-02-13T22:03:24.744Z,5.9375
2023-02-13T22:08:25.710Z,5.9375
2023-02-13T22:13:27.009Z,5.9375
2023-02-13T22:18:27.999Z,5.9375
2023-02-13T22:23:29.292Z,5.875
2023-02-13T22:28:30.605Z,5.875
2023-02-13T22:33:31.968Z,5.875
2023-02-13T22:38:32.703Z,5.875
2023-02-13T22:43:33.583Z,5.875
2023-02-13T22:48:34.704Z,5.8125
2023-02-13T22:53:35.816Z,5.8125
2023-02-13T22:58:36.627Z,5.8125
2023-02-13T23:03:37.722Z,5.8125
2023-02-13T23:08:38.781Z,5.8125
2023-02-13T23:13:40.203Z,5.75
2023-02-13T23:18:41.080Z,5.75
2023-02-13T23:23:41.984Z,5.75
2023-02-13T23:28:43.323Z,5.75
2023-02-13T23:33:44.954Z,5.6875
2023-02-13T23:38:45.567Z,5.6875
2023-02-13T23:43:46.673Z,5.6875
2023-02-13T23:48:47.943Z,5.625
2023-02-13T23:53:49.474Z,5.625
2023-02-13T23:58:50.374Z,5.625
